Galgate, United Kingdom
Current Conditions -  °F | °C
As of 8:50 AM on Saturday 25 Oct 2014 (Local Time) from EGOW Reporting Station
Broken Clouds Broken Clouds  
Wind Chill: 50°   Ceiling: 3800
Heat Index: 50°   Visibility: 6mi
Dew Point: 46°   Wind: 14mph
Humidity: 87%   Direction: 180°S
Pressure: 29.91"   Gusts: NA
Location:  53.98°N, 2.78°W
Report Text: EGOW 250750Z 18012KT 9999 FEW010 BKN038 10/08 Q1013 BLU
Loading
Personal Weather Stations






























Interactive Weather Map
Tropical Storm Tracking
New forecast layout! Learn more

10-Day Weather Forecast

Advertisements
Track Severe Weather on mobile